createdAt,value
2023-05-25T00:01:29.266Z,102012.55
2023-05-25T00:03:56.975Z,102018.34
2023-05-25T00:08:59.789Z,102054.05
2023-05-25T00:11:27.760Z,102060.14
2023-05-25T00:13:55.790Z,102064.15
2023-05-25T00:16:23.439Z,102070.30
2023-05-25T00:18:51.229Z,102074.73
2023-05-25T00:21:20.714Z,102079.77
2023-05-25T00:23:48.371Z,102087.91
2023-05-25T00:26:16.036Z,102084.06
2023-05-25T00:28:43.714Z,102083.63
2023-05-25T00:31:11.989Z,102082.86
2023-05-25T00:33:39.708Z,102081.47
2023-05-25T00:36:09.039Z,102079.81
2023-05-25T00:38:37.412Z,102081.67
2023-05-25T00:41:06.430Z,102079.65
2023-05-25T00:43:34.095Z,102074.66
2023-05-25T00:46:01.875Z,102070.80
2023-05-25T00:48:29.630Z,102074.73
2023-05-25T00:51:00.153Z,102071.38
2023-05-25T00:53:28.022Z,102076.05
2023-05-25T00:56:16.048Z,102078.76
2023-05-25T00:58:43.861Z,102083.29
2023-05-25T01:01:12.139Z,102083.90
2023-05-25T01:03:45.972Z,102084.00
2023-05-25T01:06:15.396Z,102084.08
2023-05-25T01:08:46.957Z,102083.45
2023-05-25T01:11:16.602Z,102079.57
2023-05-25T01:13:45.211Z,102083.04
2023-05-25T01:16:13.013Z,102081.04
2023-05-25T01:18:43.188Z,102078.36
2023-05-25T01:21:18.429Z,102073.14
2023-05-25T01:23:49.152Z,102073.02
2023-05-25T01:26:17.216Z,102073.91
2023-05-25T01:28:48.496Z,102078.52
2023-05-25T01:31:16.592Z,102084.05
2023-05-25T01:33:44.855Z,102082.86
2023-05-25T01:36:12.470Z,102090.88
2023-05-25T01:38:40.144Z,102093.58
2023-05-25T01:41:07.870Z,102101.95
2023-05-25T01:43:35.678Z,102107.66
2023-05-25T01:46:19.159Z,102106.66
2023-05-25T01:49:45.757Z,102109.23
2023-05-25T01:52:22.058Z,102116.40
2023-05-25T01:55:09.166Z,102118.27
2023-05-25T01:57:39.118Z,102116.23
2023-05-25T02:00:08.092Z,102116.54
2023-05-25T02:02:43.340Z,102118.77
2023-05-25T02:05:11.947Z,102119.57
2023-05-25T02:07:39.651Z,102119.92
2023-05-25T02:10:08.338Z,102123.77
2023-05-25T02:12:36.108Z,102122.66
2023-05-25T02:15:04.864Z,102123.21
2023-05-25T02:17:32.532Z,102119.23
2023-05-25T02:20:00.349Z,102126.73
2023-05-25T02:22:28.272Z,102131.92
2023-05-25T02:24:56.030Z,102131.60
2023-05-25T02:27:23.637Z,102136.91
2023-05-25T02:29:53.410Z,102147.98
2023-05-25T02:32:21.544Z,102155.86
2023-05-25T02:34:49.317Z,102163.63
2023-05-25T02:37:18.114Z,102171.73
2023-05-25T02:39:46.008Z,102181.95
2023-05-25T02:42:13.853Z,102192.22
2023-05-25T02:44:48.428Z,102200.16
2023-05-25T02:47:16.834Z,102207.90
2023-05-25T02:49:45.732Z,102216.30
2023-05-25T02:52:13.568Z,102225.34
2023-05-25T02:54:42.224Z,102228.02
2023-05-25T02:57:10.566Z,102233.52
2023-05-25T02:59:38.448Z,102240.93
2023-05-25T03:02:06.504Z,102249.40
2023-05-25T03:04:37.781Z,102258.85
2023-05-25T03:07:05.636Z,102277.24
2023-05-25T03:09:33.723Z,102296.19
2023-05-25T03:12:02.910Z,102303.65
2023-05-25T03:14:30.720Z,102308.67
2023-05-25T03:17:03.862Z,102321.27
2023-05-25T03:19:32.659Z,102329.60
2023-05-25T03:22:00.791Z,102340.79
2023-05-25T03:24:29.107Z,102346.29
2023-05-25T03:26:58.963Z,102359.73
2023-05-25T03:29:27.306Z,102369.27
2023-05-25T03:31:55.071Z,102379.55
2023-05-25T03:34:24.930Z,102392.66
2023-05-25T03:36:54.517Z,102406.33
2023-05-25T03:39:22.575Z,102417.61
2023-05-25T03:41:51.477Z,102431.04
2023-05-25T03:44:19.237Z,102446.52
2023-05-25T03:46:47.311Z,102460.33
2023-05-25T03:49:15.177Z,102469.98
2023-05-25T03:51:42.853Z,102484.45
2023-05-25T03:54:10.652Z,102498.05
2023-05-25T03:56:38.412Z,102506.15
2023-05-25T03:59:06.400Z,102516.48
2023-05-25T04:01:34.169Z,102521.23
2023-05-25T04:04:03.363Z,102531.49
2023-05-25T04:06:31.121Z,102543.07
2023-05-25T04:08:58.744Z,102556.53
2023-05-25T04:11:27.806Z,102571.54
2023-05-25T04:13:55.494Z,102588.03
2023-05-25T04:16:26.410Z,102610.55
2023-05-25T04:18:54.124Z,102627.35
2023-05-25T04:21:22.385Z,102644.63
2023-05-25T04:23:50.925Z,102663.30
2023-05-25T04:26:18.667Z,102681.98
2023-05-25T04:28:48.505Z,102698.38
2023-05-25T04:31:46.467Z,102718.66
2023-05-25T04:34:15.452Z,102730.45
2023-05-25T04:36:51.170Z,102747.33
2023-05-25T04:39:18.972Z,102765.69
2023-05-25T04:41:53.397Z,102780.11
2023-05-25T04:44:21.230Z,102790.31
2023-05-25T04:46:52.864Z,102797.89
2023-05-25T04:49:29.548Z,102808.11
2023-05-25T04:51:57.365Z,102825.66
2023-05-25T04:54:25.923Z,102839.44
2023-05-25T04:56:53.862Z,102848.45
2023-05-25T04:59:22.123Z,102840.17
2023-05-25T05:01:49.903Z,102835.49
2023-05-25T05:04:18.554Z,102826.13
2023-05-25T05:06:46.425Z,102815.33
2023-05-25T05:09:22.356Z,102802.81
2023-05-25T05:11:50.269Z,102792.15
2023-05-25T05:14:19.371Z,102774.92
2023-05-25T05:16:48.455Z,102744.39
2023-05-25T05:19:16.592Z,102736.60
2023-05-25T05:21:44.620Z,102748.38
2023-05-25T05:24:12.826Z,102776.56
2023-05-25T05:26:55.775Z,102817.15
2023-05-25T05:29:29.587Z,102856.48
2023-05-25T05:31:57.911Z,102860.16
2023-05-25T05:34:26.709Z,102849.50
2023-05-25T05:36:58.224Z,102807.41
2023-05-25T05:39:28.240Z,102737.72
2023-05-25T05:41:56.208Z,102692.21
2023-05-25T05:44:27.872Z,102648.61
2023-05-25T05:47:01.315Z,102585.23
2023-05-25T05:49:30.952Z,102528.20
2023-05-25T05:51:59.629Z,102459.52
2023-05-25T05:54:28.377Z,102390.94
2023-05-25T05:56:58.357Z,102337.02
2023-05-25T05:59:26.890Z,102305.00
2023-05-25T06:01:54.724Z,102295.87
2023-05-25T06:04:25.627Z,102302.98
2023-05-25T06:06:53.401Z,102314.39
2023-05-25T06:09:21.282Z,102329.81
2023-05-25T06:11:49.118Z,102352.55
2023-05-25T06:14:18.207Z,102378.12
2023-05-25T06:16:46.128Z,102394.45
2023-05-25T06:19:14.774Z,102397.31
2023-05-25T06:21:42.874Z,102373.93
2023-05-25T06:24:10.915Z,102345.51
2023-05-25T06:26:38.887Z,102303.12
2023-05-25T06:29:06.619Z,102248.21
2023-05-25T06:31:34.356Z,102198.36
2023-05-25T06:34:02.022Z,102166.23
2023-05-25T06:36:29.755Z,102129.86
2023-05-25T06:38:57.451Z,102097.92
2023-05-25T06:41:25.117Z,102077.74
2023-05-25T06:43:52.917Z,102065.34
2023-05-25T06:46:30.699Z,102057.88
2023-05-25T06:49:01.350Z,102046.60
2023-05-25T06:51:29.230Z,102036.56
2023-05-25T06:53:57.295Z,102017.05
2023-05-25T06:56:25.028Z,101984.28
2023-05-25T06:58:52.671Z,101952.14
2023-05-25T07:01:20.410Z,101928.02
2023-05-25T07:03:48.193Z,101893.67
2023-05-25T07:06:17.343Z,101856.09
2023-05-25T07:08:45.092Z,101842.53
2023-05-25T07:11:14.424Z,101837.64
2023-05-25T07:13:42.128Z,101821.77
2023-05-25T07:16:09.901Z,101809.88
2023-05-25T07:18:41.124Z,101790.37
2023-05-25T07:21:11.657Z,101769.96
2023-05-25T07:23:41.287Z,101747.04
2023-05-25T07:26:09.173Z,101720.98
2023-05-25T07:28:36.969Z,101707.27
2023-05-25T07:31:04.714Z,101709.53
2023-05-25T07:33:32.385Z,101701.47
2023-05-25T07:36:00.091Z,101685.08
2023-05-25T07:38:27.846Z,101673.00
2023-05-25T07:40:55.592Z,101667.86
2023-05-25T07:43:23.794Z,101646.38
2023-05-25T07:45:51.495Z,101617.44
2023-05-25T07:48:19.128Z,101593.56
2023-05-25T07:50:47.050Z,101584.59
2023-05-25T07:53:14.872Z,101585.95
2023-05-25T07:55:42.610Z,101580.23
2023-05-25T07:58:10.515Z,101569.89
2023-05-25T08:00:38.234Z,101560.98
2023-05-25T08:03:06.201Z,101544.17
2023-05-25T08:05:34.177Z,101532.02
2023-05-25T08:08:02.024Z,101511.70
2023-05-25T08:10:32.594Z,101491.90
2023-05-25T08:13:00.526Z,101473.21
2023-05-25T08:15:28.697Z,101443.74
2023-05-25T08:17:56.963Z,101427.82
2023-05-25T08:20:26.168Z,101411.57
2023-05-25T08:22:54.858Z,101391.30
2023-05-25T08:25:22.714Z,101378.21
2023-05-25T08:27:50.576Z,101368.41
2023-05-25T08:30:18.362Z,101359.05
2023-05-25T08:32:46.575Z,101353.64
2023-05-25T08:35:14.522Z,101353.08
2023-05-25T08:37:43.758Z,101353.42
2023-05-25T08:40:16.474Z,101347.05
2023-05-25T08:42:44.751Z,101344.02
2023-05-25T08:45:26.505Z,101345.83
2023-05-25T08:48:01.311Z,101347.50
2023-05-25T08:50:29.268Z,101345.31
2023-05-25T08:52:57.075Z,101342.14
2023-05-25T08:55:24.869Z,101342.43
2023-05-25T08:58:01.393Z,101339.52
2023-05-25T09:00:32.399Z,101337.33
2023-05-25T09:03:08.303Z,101338.52
2023-05-25T09:05:37.930Z,101343.73
2023-05-25T09:08:07.129Z,101347.08
2023-05-25T09:10:35.160Z,101356.69
2023-05-25T09:13:16.706Z,101362.84
2023-05-25T09:15:49.341Z,101363.22
2023-05-25T09:18:17.362Z,101366.25
2023-05-25T09:20:47.016Z,101371.73
2023-05-25T09:30:50.649Z,101392.89
2023-05-25T09:33:18.620Z,101397.48
2023-05-25T09:35:46.886Z,101402.32
2023-05-25T09:38:16.085Z,101399.99
2023-05-25T09:40:44.619Z,101397.07
2023-05-25T09:43:21.956Z,101396.58
2023-05-25T09:45:56.732Z,101397.23
2023-05-25T09:48:24.607Z,101396.55
2023-05-25T09:50:53.150Z,101401.09
2023-05-25T09:53:21.403Z,101402.55
2023-05-25T09:55:54.242Z,101398.61
2023-05-25T09:58:24.109Z,101392.48
2023-05-25T10:00:55.685Z,101386.48
2023-05-25T10:03:23.783Z,101382.91
2023-05-25T10:05:52.344Z,101384.14
2023-05-25T10:08:20.418Z,101387.20
2023-05-25T10:10:50.348Z,101394.08
2023-05-25T10:13:23.191Z,101396.34
2023-05-25T10:15:53.171Z,101395.97
2023-05-25T10:18:25.963Z,101393.90
2023-05-25T10:20:57.765Z,101376.52
2023-05-25T10:23:25.905Z,101360.61
2023-05-25T10:25:55.450Z,101338.13
2023-05-25T10:28:31.401Z,101325.27
2023-05-25T10:30:59.391Z,101314.11
2023-05-25T10:33:27.296Z,101298.10
2023-05-25T10:36:03.015Z,101284.36
2023-05-25T10:38:39.856Z,101281.40
2023-05-25T10:41:10.008Z,101281.90
2023-05-25T10:43:41.414Z,101278.73
2023-05-25T10:46:09.459Z,101272.89
2023-05-25T10:48:38.805Z,101263.86
2023-05-25T10:51:09.063Z,101261.28
2023-05-25T10:53:38.030Z,101262.04
2023-05-25T10:56:07.599Z,101263.33
2023-05-25T10:58:35.467Z,101255.86
2023-05-25T11:01:07.161Z,101252.91
2023-05-25T11:03:44.720Z,101256.73
2023-05-25T11:06:15.658Z,101259.00
2023-05-25T11:08:51.384Z,101273.48
2023-05-25T11:11:19.347Z,101279.92
2023-05-25T11:13:48.975Z,101283.13
2023-05-25T11:16:36.374Z,101283.17
2023-05-25T11:19:04.278Z,101285.63
2023-05-25T11:21:42.891Z,101282.79
2023-05-25T11:24:15.534Z,101283.30
2023-05-25T11:27:02.228Z,101286.13
2023-05-25T11:29:33.339Z,101287.45
2023-05-25T11:32:01.547Z,101287.54
2023-05-25T11:34:30.573Z,101285.02
2023-05-25T11:37:02.409Z,101276.46
2023-05-25T11:39:31.880Z,101272.92
2023-05-25T11:42:04.570Z,101277.77
2023-05-25T11:44:34.036Z,101280.74
2023-05-25T11:47:09.144Z,101278.74
2023-05-25T11:49:46.368Z,101282.65
2023-05-25T11:52:15.212Z,101282.35
2023-05-25T11:54:43.324Z,101283.17
2023-05-25T11:57:19.918Z,101276.16
2023-05-25T11:59:52.326Z,101267.17
2023-05-25T12:02:20.943Z,101260.77
2023-05-25T12:05:00.310Z,101254.27
2023-05-25T12:07:29.005Z,101246.41
2023-05-25T12:10:09.999Z,101245.80
2023-05-25T12:12:48.819Z,101245.56
2023-05-25T12:15:23.903Z,101239.05
2023-05-25T12:17:52.773Z,101233.02
2023-05-25T12:20:20.922Z,101232.90
2023-05-25T12:22:49.112Z,101233.69
2023-05-25T12:26:50.867Z,101245.34
2023-05-25T12:29:18.840Z,101252.84
2023-05-25T12:31:46.907Z,101260.71
2023-05-25T12:34:16.021Z,101268.06
2023-05-25T12:36:49.230Z,101282.35
2023-05-25T12:39:18.794Z,101290.98
2023-05-25T12:41:54.815Z,101292.64
2023-05-25T12:44:26.202Z,101285.86
2023-05-25T12:46:55.488Z,101284.09
2023-05-25T12:49:27.342Z,101286.74
2023-05-25T12:51:55.423Z,101294.27
2023-05-25T12:54:41.322Z,101299.58
2023-05-25T12:57:10.038Z,101313.61
2023-05-25T12:59:38.203Z,101326.65
2023-05-25T13:02:07.546Z,101338.17
2023-05-25T13:04:36.527Z,101342.98
2023-05-25T13:07:05.098Z,101340.52
2023-05-25T13:09:33.537Z,101340.13
2023-05-25T13:12:02.544Z,101344.23
2023-05-25T13:14:30.467Z,101349.71
2023-05-25T13:16:58.300Z,101343.60
2023-05-25T13:19:26.229Z,101343.59
2023-05-25T13:21:56.103Z,101344.45
2023-05-25T13:24:24.584Z,101344.63
2023-05-25T13:26:52.351Z,101346.49
2023-05-25T13:29:20.155Z,101352.45
2023-05-25T13:31:48.442Z,101353.93
2023-05-25T13:34:16.266Z,101356.20
2023-05-25T13:36:44.041Z,101358.02
2023-05-25T13:39:13.942Z,101361.99
2023-05-25T13:41:42.120Z,101352.05
2023-05-25T13:44:11.375Z,101337.94
2023-05-25T13:46:39.234Z,101327.85
2023-05-25T13:49:07.161Z,101320.20
2023-05-25T13:51:36.007Z,101317.01
2023-05-25T13:54:03.800Z,101320.27
2023-05-25T13:56:31.491Z,101308.41
2023-05-25T13:58:59.141Z,101301.68
2023-05-25T14:01:29.627Z,101295.21
2023-05-25T14:03:58.509Z,101282.70
2023-05-25T14:06:26.242Z,101274.88
2023-05-25T14:08:54.177Z,101264.23
2023-05-25T14:11:28.148Z,101260.86
2023-05-25T14:13:56.585Z,101259.56
2023-05-25T14:16:24.404Z,101259.98
2023-05-25T14:18:52.138Z,101262.35
2023-05-25T14:21:19.928Z,101262.63
2023-05-25T14:23:47.549Z,101265.13
2023-05-25T14:26:15.302Z,101268.74
2023-05-25T14:28:42.941Z,101273.32
2023-05-25T14:31:12.627Z,101271.98
2023-05-25T14:33:42.849Z,101270.45
2023-05-25T14:36:11.162Z,101264.90
2023-05-25T14:38:38.822Z,101262.52
2023-05-25T14:41:06.534Z,101253.43
2023-05-25T14:43:35.262Z,101242.31
2023-05-25T14:46:03.103Z,101234.79
2023-05-25T14:48:30.919Z,101236.13
2023-05-25T14:51:00.422Z,101224.16
2023-05-25T14:53:28.122Z,101217.56
2023-05-25T14:55:55.902Z,101213.89
2023-05-25T14:58:23.633Z,101213.63
2023-05-25T15:00:52.218Z,101210.24
2023-05-25T15:03:20.124Z,101202.60
2023-05-25T15:05:47.847Z,101197.58
2023-05-25T15:08:15.700Z,101192.88
2023-05-25T15:10:43.502Z,101188.72
2023-05-25T15:13:13.182Z,101195.94
2023-05-25T15:15:42.027Z,101198.71
2023-05-25T15:18:09.901Z,101205.33
2023-05-25T15:20:37.661Z,101207.76
2023-05-25T15:23:05.493Z,101207.71
2023-05-25T15:25:35.462Z,101204.73
2023-05-25T15:28:03.891Z,101199.52
2023-05-25T15:30:33.435Z,101201.91
2023-05-25T15:33:02.114Z,101195.25
2023-05-25T15:35:32.890Z,101195.88
2023-05-25T15:38:00.710Z,101197.10
2023-05-25T15:40:28.420Z,101194.65
2023-05-25T15:42:56.679Z,101202.17
2023-05-25T15:45:25.334Z,101200.92
2023-05-25T15:47:53.202Z,101199.79
2023-05-25T15:50:21.157Z,101202.73
2023-05-25T15:52:48.844Z,101205.93
2023-05-25T15:55:16.539Z,101202.00
2023-05-25T15:57:44.248Z,101202.71
2023-05-25T16:00:12.912Z,101207.67
2023-05-25T16:02:41.002Z,101207.80
2023-05-25T16:05:09.999Z,101212.33
2023-05-25T16:07:37.652Z,101224.77
2023-05-25T16:10:06.114Z,101227.66
2023-05-25T16:12:33.760Z,101224.80
2023-05-25T16:15:01.589Z,101218.80
2023-05-25T16:17:30.147Z,101216.17
2023-05-25T16:19:58.082Z,101213.77
2023-05-25T16:22:26.008Z,101210.08
2023-05-25T16:24:53.730Z,101212.46
2023-05-25T16:27:21.475Z,101210.83
2023-05-25T16:29:49.175Z,101210.48
2023-05-25T16:32:16.964Z,101211.98
2023-05-25T16:34:44.859Z,101215.16
2023-05-25T16:37:12.590Z,101214.39
2023-05-25T16:39:40.248Z,101213.91
2023-05-25T16:42:08.108Z,101212.58
2023-05-25T16:44:36.171Z,101210.55
2023-05-25T16:47:04.014Z,101206.69
2023-05-25T16:49:31.664Z,101213.29
2023-05-25T16:51:59.410Z,101215.30
2023-05-25T16:54:27.103Z,101224.77
2023-05-25T16:56:54.757Z,101234.55
2023-05-25T16:59:22.405Z,101245.60
2023-05-25T17:01:50.243Z,101259.02
2023-05-25T17:04:17.988Z,101271.12
2023-05-25T17:06:45.693Z,101280.03
2023-05-25T17:09:13.392Z,101290.59
2023-05-25T17:11:41.048Z,101296.25
2023-05-25T17:14:09.062Z,101299.20
2023-05-25T17:16:36.929Z,101304.00
2023-05-25T17:19:05.194Z,101313.81
2023-05-25T17:21:32.954Z,101325.50
2023-05-25T17:24:00.908Z,101336.02
2023-05-25T17:26:28.561Z,101341.53
2023-05-25T17:28:59.333Z,101347.95
2023-05-25T17:31:28.174Z,101353.34
2023-05-25T17:33:56.393Z,101363.75
2023-05-25T17:36:24.235Z,101376.05
2023-05-25T17:38:51.963Z,101387.46
2023-05-25T17:41:19.732Z,101395.54
2023-05-25T17:43:47.418Z,101404.95
2023-05-25T17:46:15.911Z,101415.42
2023-05-25T17:48:43.662Z,101415.38
2023-05-25T17:51:11.300Z,101421.52
2023-05-25T17:53:39.048Z,101428.54
2023-05-25T17:56:06.886Z,101429.02
2023-05-25T17:58:34.513Z,101430.47
2023-05-25T18:01:02.337Z,101428.72
2023-05-25T18:03:30.302Z,101426.80
2023-05-25T18:05:59.274Z,101427.73
2023-05-25T18:08:27.004Z,101432.15
2023-05-25T18:10:54.711Z,101436.05
2023-05-25T18:13:22.490Z,101439.62
2023-05-25T18:15:50.160Z,101446.11
2023-05-25T18:18:20.936Z,101447.31
2023-05-25T18:20:48.612Z,101456.03
2023-05-25T18:23:16.564Z,101465.80
2023-05-25T18:25:44.689Z,101475.38
2023-05-25T18:28:15.341Z,101482.52
2023-05-25T18:30:43.351Z,101494.80
2023-05-25T18:33:11.206Z,101500.26
2023-05-25T18:35:38.995Z,101508.91
2023-05-25T18:38:09.640Z,101519.00
2023-05-25T18:40:37.315Z,101536.35
2023-05-25T18:43:06.141Z,101549.33
2023-05-25T18:45:34.053Z,101556.95
2023-05-25T18:48:07.785Z,101563.48
2023-05-25T18:50:36.159Z,101567.86
2023-05-25T18:53:10.179Z,101570.73
2023-05-25T18:55:39.568Z,101570.41
2023-05-25T18:58:07.367Z,101575.45
2023-05-25T19:00:35.103Z,101572.50
2023-05-25T19:03:03.051Z,101579.70
2023-05-25T19:05:31.085Z,101582.59
2023-05-25T19:08:00.053Z,101584.23
2023-05-25T19:10:28.005Z,101586.58
2023-05-25T19:12:55.877Z,101589.52
2023-05-25T19:15:23.671Z,101594.61
2023-05-25T19:17:51.404Z,101600.00
2023-05-25T19:20:19.182Z,101603.85
2023-05-25T19:22:46.997Z,101610.48
2023-05-25T19:25:14.827Z,101620.59
2023-05-25T19:27:42.553Z,101627.67
2023-05-25T19:30:10.630Z,101632.55
2023-05-25T19:32:38.386Z,101639.20
2023-05-25T19:35:07.696Z,101653.17
2023-05-25T19:37:37.885Z,101668.50
2023-05-25T19:40:09.108Z,101670.96
2023-05-25T19:42:37.324Z,101668.01
2023-05-25T19:45:05.947Z,101671.64
2023-05-25T19:47:33.680Z,101676.80
2023-05-25T19:50:01.832Z,101684.39
2023-05-25T19:52:29.493Z,101689.62
2023-05-25T19:54:57.136Z,101694.27
2023-05-25T19:57:27.065Z,101705.78
2023-05-25T19:59:54.790Z,101713.40
2023-05-25T20:02:22.513Z,101720.59
2023-05-25T20:04:50.228Z,101724.40
2023-05-25T20:07:21.215Z,101726.12
2023-05-25T20:09:49.521Z,101729.97
2023-05-25T20:12:17.319Z,101733.16
2023-05-25T20:14:44.942Z,101740.71
2023-05-25T20:17:12.625Z,101744.26
2023-05-25T20:19:40.348Z,101745.41
2023-05-25T20:22:08.547Z,101751.29
2023-05-25T20:24:36.327Z,101751.95
2023-05-25T20:27:06.311Z,101752.38
2023-05-25T20:29:34.118Z,101752.30
2023-05-25T20:32:02.175Z,101759.86
2023-05-25T20:34:29.910Z,101764.23
2023-05-25T20:36:57.511Z,101765.05
2023-05-25T20:39:26.289Z,101771.55
2023-05-25T20:41:54.056Z,101769.73
2023-05-25T20:44:21.809Z,101771.75
2023-05-25T20:46:49.471Z,101777.96
2023-05-25T20:49:17.148Z,101786.17
2023-05-25T20:51:50.121Z,101792.66
2023-05-25T20:54:18.143Z,101797.76
2023-05-25T20:56:47.734Z,101806.48
2023-05-25T20:59:15.449Z,101814.48
2023-05-25T21:01:44.633Z,101818.59
2023-05-25T21:04:12.358Z,101823.05
2023-05-25T21:06:40.315Z,101828.75
2023-05-25T21:09:07.978Z,101829.72
2023-05-25T21:11:35.671Z,101835.80
2023-05-25T21:14:03.588Z,101844.67
2023-05-25T21:16:31.408Z,101854.10
2023-05-25T21:18:59.225Z,101863.55
2023-05-25T21:21:28.352Z,101871.98
2023-05-25T21:23:56.081Z,101876.95
2023-05-25T21:26:23.738Z,101881.54
2023-05-25T21:28:51.355Z,101884.37
2023-05-25T21:31:20.530Z,101883.41
2023-05-25T21:33:48.376Z,101894.83
2023-05-25T21:36:16.082Z,101895.19
2023-05-25T21:38:43.772Z,101899.71
2023-05-25T21:41:11.545Z,101896.77
2023-05-25T21:43:39.266Z,101896.85
2023-05-25T21:46:06.989Z,101897.13
2023-05-25T21:48:34.708Z,101903.02
2023-05-25T21:51:02.482Z,101917.59
2023-05-25T21:53:30.153Z,101928.77
2023-05-25T21:55:57.826Z,101929.92
2023-05-25T21:58:25.671Z,101947.09
2023-05-25T22:00:53.393Z,101949.82
2023-05-25T22:03:21.525Z,101951.48
2023-05-25T22:05:49.323Z,101960.89
2023-05-25T22:08:16.956Z,101962.48
2023-05-25T22:10:44.648Z,101969.69
2023-05-25T22:13:12.316Z,101978.33
2023-05-25T22:15:39.985Z,101979.08
2023-05-25T22:18:07.894Z,101989.60
2023-05-25T22:20:38.753Z,101998.29
2023-05-25T22:23:06.479Z,102003.68
2023-05-25T22:25:34.249Z,102009.28
2023-05-25T22:28:01.992Z,102014.96
2023-05-25T22:30:29.722Z,102012.92
2023-05-25T22:32:57.464Z,102011.52
2023-05-25T22:35:25.236Z,102011.20
2023-05-25T22:37:52.888Z,101999.46
2023-05-25T22:40:20.685Z,101978.23
2023-05-25T22:42:50.563Z,101963.96
2023-05-25T22:45:18.466Z,101969.17
2023-05-25T22:47:46.289Z,101965.89
2023-05-25T22:50:14.046Z,101957.02
2023-05-25T22:52:41.773Z,101952.06
2023-05-25T22:55:09.637Z,101950.24
2023-05-25T22:57:37.284Z,101949.94
2023-05-25T23:00:05.936Z,101951.59
2023-05-25T23:02:33.977Z,101943.63
2023-05-25T23:05:01.792Z,101938.02
2023-05-25T23:07:29.449Z,101930.45
2023-05-25T23:09:57.278Z,101929.02
2023-05-25T23:12:25.079Z,101927.83
2023-05-25T23:14:53.684Z,101925.87
2023-05-25T23:17:21.755Z,101929.81
2023-05-25T23:19:49.550Z,101929.90
2023-05-25T23:22:17.217Z,101926.55
2023-05-25T23:24:44.946Z,101934.41
2023-05-25T23:27:12.678Z,101939.63
2023-05-25T23:29:40.419Z,101943.58
2023-05-25T23:32:08.203Z,101945.91
2023-05-25T23:34:36.044Z,101950.44
2023-05-25T23:37:06.315Z,101947.55
2023-05-25T23:39:34.360Z,101944.20
2023-05-25T23:42:02.566Z,101941.23
2023-05-25T23:44:30.334Z,101939.82
2023-05-25T23:46:58.164Z,101943.30
2023-05-25T23:49:25.871Z,101947.81
2023-05-25T23:51:53.531Z,101951.95
2023-05-25T23:54:21.263Z,101954.64
2023-05-25T23:56:48.988Z,101962.55
2023-05-25T23:59:16.649Z,101974.14
